sensor_id;sensor_type;location;lat;lon;timestamp;temperature;humidity
75517;DHT22;64097;52.548;13.406;2024-01-11T06:01:45;3.50;57.90
75517;DHT22;64097;52.548;13.406;2024-01-11T06:04:11;3.60;58.00
75517;DHT22;64097;52.548;13.406;2024-01-11T06:06:37;3.60;57.90
75517;DHT22;64097;52.548;13.406;2024-01-11T06:09:03;3.60;57.90
75517;DHT22;64097;52.548;13.406;2024-01-11T06:11:30;3.70;58.10
75517;DHT22;64097;52.548;13.406;2024-01-11T06:13:55;3.70;58.10
75517;DHT22;64097;52.548;13.406;2024-01-11T06:16:21;3.70;58.10
75517;DHT22;64097;52.548;13.406;2024-01-11T06:18:47;3.70;58.10
75517;DHT22;64097;52.548;13.406;2024-01-11T06:21:12;3.70;58.10
75517;DHT22;64097;52.548;13.406;2024-01-11T06:23:38;3.70;58.10
75517;DHT22;64097;52.548;13.406;2024-01-11T06:26:04;3.80;58.20
75517;DHT22;64097;52.548;13.406;2024-01-11T06:28:30;3.80;58.20
75517;DHT22;64097;52.548;13.406;2024-01-11T06:30:55;3.80;58.30
75517;DHT22;64097;52.548;13.406;2024-01-11T06:33:21;3.90;58.50
75517;DHT22;64097;52.548;13.406;2024-01-11T06:35:47;3.80;58.50
75517;DHT22;64097;52.548;13.406;2024-01-11T06:38:13;3.90;59.20
75517;DHT22;64097;52.548;13.406;2024-01-11T06:40:38;3.90;58.70
75517;DHT22;64097;52.548;13.406;2024-01-11T06:43:04;3.90;58.70
75517;DHT22;64097;52.548;13.406;2024-01-11T06:45:30;3.90;58.70
75517;DHT22;64097;52.548;13.406;2024-01-11T06:47:55;3.90;58.80
75517;DHT22;64097;52.548;13.406;2024-01-11T06:50:23;3.90;58.80
75517;DHT22;64097;52.548;13.406;2024-01-11T06:52:50;3.90;58.80
75517;DHT22;64097;52.548;13.406;2024-01-11T06:55:15;4.00;58.80
75517;DHT22;64097;52.548;13.406;2024-01-11T06:57:41;4.00;59.00
75517;DHT22;64097;52.548;13.406;2024-01-11T07:00:07;4.00;58.80
75517;DHT22;64097;52.548;13.406;2024-01-11T07:02:33;4.10;58.80
75517;DHT22;64097;52.548;13.406;2024-01-11T07:04:59;4.10;58.90
75517;DHT22;64097;52.548;13.406;2024-01-11T07:07:24;4.10;59.00
75517;DHT22;64097;52.548;13.406;2024-01-11T07:09:50;4.10;58.80
75517;DHT22;64097;52.548;13.406;2024-01-11T07:12:16;4.20;58.80
75517;DHT22;64097;52.548;13.406;2024-01-11T07:14:42;4.20;58.90
75517;DHT22;64097;52.548;13.406;2024-01-11T07:17:08;4.20;58.80
75517;DHT22;64097;52.548;13.406;2024-01-11T07:19:33;4.20;58.70
75517;DHT22;64097;52.548;13.406;2024-01-11T07:21:59;4.30;58.80
75517;DHT22;64097;52.548;13.406;2024-01-11T07:24:25;4.30;58.90
75517;DHT22;64097;52.548;13.406;2024-01-11T07:26:50;4.30;59.00
75517;DHT22;64097;52.548;13.406;2024-01-11T07:29:16;4.30;58.90
75517;DHT22;64097;52.548;13.406;2024-01-11T07:31:42;4.30;58.90
75517;DHT22;64097;52.548;13.406;2024-01-11T07:34:07;4.30;58.90
75517;DHT22;64097;52.548;13.406;2024-01-11T07:36:33;4.40;58.90
75517;DHT22;64097;52.548;13.406;2024-01-11T07:38:59;4.40;58.90
75517;DHT22;64097;52.548;13.406;2024-01-11T07:41:25;4.40;58.90
75517;DHT22;64097;52.548;13.406;2024-01-11T07:43:50;4.40;58.90
75517;DHT22;64097;52.548;13.406;2024-01-11T07:46:16;4.40;59.10
75517;DHT22;64097;52.548;13.406;2024-01-11T07:48:42;4.40;59.10
75517;DHT22;64097;52.548;13.406;2024-01-11T07:51:08;4.50;59.30
75517;DHT22;64097;52.548;13.406;2024-01-11T07:53:33;4.40;59.10
75517;DHT22;64097;52.548;13.406;2024-01-11T07:55:59;4.40;59.30
75517;DHT22;64097;52.548;13.406;2024-01-11T07:58:26;4.50;59.30
75517;DHT22;64097;52.548;13.406;2024-01-11T08:00:52;4.50;59.30
75517;DHT22;64097;52.548;13.406;2024-01-11T08:03:17;4.50;59.30
75517;DHT22;64097;52.548;13.406;2024-01-11T08:05:43;4.60;59.40
75517;DHT22;64097;52.548;13.406;2024-01-11T08:08:09;4.60;59.60
75517;DHT22;64097;52.548;13.406;2024-01-11T08:10:35;4.60;59.50
75517;DHT22;64097;52.548;13.406;2024-01-11T08:13:01;4.60;59.40
75517;DHT22;64097;52.548;13.406;2024-01-11T08:15:26;4.70;59.40
75517;DHT22;64097;52.548;13.406;2024-01-11T08:17:53;4.70;59.50
75517;DHT22;64097;52.548;13.406;2024-01-11T08:20:18;4.70;59.40
75517;DHT22;64097;52.548;13.406;2024-01-11T08:22:45;4.70;60.20
75517;DHT22;64097;52.548;13.406;2024-01-11T08:25:12;4.80;59.50
75517;DHT22;64097;52.548;13.406;2024-01-11T08:27:39;4.80;59.50
75517;DHT22;64097;52.548;13.406;2024-01-11T08:30:05;4.80;59.40
75517;DHT22;64097;52.548;13.406;2024-01-11T08:32:31;4.80;59.50
75517;DHT22;64097;52.548;13.406;2024-01-11T08:34:57;4.80;59.40
75517;DHT22;64097;52.548;13.406;2024-01-11T08:37:23;4.80;59.50
75517;DHT22;64097;52.548;13.406;2024-01-11T08:39:50;4.90;59.60
75517;DHT22;64097;52.548;13.406;2024-01-11T08:42:15;4.90;59.60
75517;DHT22;64097;52.548;13.406;2024-01-11T08:44:42;4.90;59.50
75517;DHT22;64097;52.548;13.406;2024-01-11T08:47:08;5.00;60.30
75517;DHT22;64097;52.548;13.406;2024-01-11T08:49:39;5.00;59.50
75517;DHT22;64097;52.548;13.406;2024-01-11T08:52:05;5.00;59.50
75517;DHT22;64097;52.548;13.406;2024-01-11T08:54:31;5.00;59.50
75517;DHT22;64097;52.548;13.406;2024-01-11T08:56:58;5.00;59.40
75517;DHT22;64097;52.548;13.406;2024-01-11T08:59:24;5.10;59.60
75517;DHT22;64097;52.548;13.406;2024-01-11T09:01:51;5.10;59.60
75517;DHT22;64097;52.548;13.406;2024-01-11T09:04:18;5.10;59.50
75517;DHT22;64097;52.548;13.406;2024-01-11T09:06:44;5.20;59.60
75517;DHT22;64097;52.548;13.406;2024-01-11T09:09:13;5.20;59.60
75517;DHT22;64097;52.548;13.406;2024-01-11T09:11:39;5.30;59.60
75517;DHT22;64097;52.548;13.406;2024-01-11T09:14:08;5.30;59.50
75517;DHT22;64097;52.548;13.406;2024-01-11T09:16:37;5.30;59.50
75517;DHT22;64097;52.548;13.406;2024-01-11T09:19:03;5.30;59.40
75517;DHT22;64097;52.548;13.406;2024-01-11T09:21:29;5.40;59.40
75517;DHT22;64097;52.548;13.406;2024-01-11T09:23:54;5.40;59.30
75517;DHT22;64097;52.548;13.406;2024-01-11T09:26:20;5.50;59.30
75517;DHT22;64097;52.548;13.406;2024-01-11T09:28:48;5.50;59.30
75517;DHT22;64097;52.548;13.406;2024-01-11T09:31:14;5.50;59.20
75517;DHT22;64097;52.548;13.406;2024-01-11T09:33:39;5.50;59.20
75517;DHT22;64097;52.548;13.406;2024-01-11T09:36:07;5.50;59.20
75517;DHT22;64097;52.548;13.406;2024-01-11T09:38:34;5.50;59.20
75517;DHT22;64097;52.548;13.406;2024-01-11T09:41:05;5.50;59.30
75517;DHT22;64097;52.548;13.406;2024-01-11T09:43:34;5.60;59.30
75517;DHT22;64097;52.548;13.406;2024-01-11T09:46:04;5.60;59.20
75517;DHT22;64097;52.548;13.406;2024-01-11T09:48:34;5.60;59.30
75517;DHT22;64097;52.548;13.406;2024-01-11T09:51:04;5.60;59.20
75517;DHT22;64097;52.548;13.406;2024-01-11T09:53:33;5.60;59.20
75517;DHT22;64097;52.548;13.406;2024-01-11T09:56:00;5.60;59.20
75517;DHT22;64097;52.548;13.406;2024-01-11T09:58:26;5.60;59.20
75517;DHT22;64097;52.548;13.406;2024-01-11T10:00:55;5.60;59.20
75517;DHT22;64097;52.548;13.406;2024-01-11T10:03:24;5.60;59.20
75517;DHT22;64097;52.548;13.406;2024-01-11T10:05:50;5.60;59.20
75517;DHT22;64097;52.548;13.406;2024-01-11T10:08:21;5.60;59.20
75517;DHT22;64097;52.548;13.406;2024-01-11T10:10:47;5.70;59.30
75517;DHT22;64097;52.548;13.406;2024-01-11T10:13:14;5.70;59.30
75517;DHT22;64097;52.548;13.406;2024-01-11T10:15:40;5.70;59.40
75517;DHT22;64097;52.548;13.406;2024-01-11T10:18:06;5.70;59.50
75517;DHT22;64097;52.548;13.406;2024-01-11T10:20:32;5.70;59.50
75517;DHT22;64097;52.548;13.406;2024-01-11T10:22:58;5.70;59.50
75517;DHT22;64097;52.548;13.406;2024-01-11T10:25:25;5.80;59.50
75517;DHT22;64097;52.548;13.406;2024-01-11T10:27:51;5.80;59.50
75517;DHT22;64097;52.548;13.406;2024-01-11T10:30:17;5.80;59.50
75517;DHT22;64097;52.548;13.406;2024-01-11T10:32:49;5.90;59.50
75517;DHT22;64097;52.548;13.406;2024-01-11T10:35:15;5.90;59.50
75517;DHT22;64097;52.548;13.406;2024-01-11T10:37:43;5.90;59.50
75517;DHT22;64097;52.548;13.406;2024-01-11T10:40:10;6.00;59.50
75517;DHT22;64097;52.548;13.406;2024-01-11T10:42:42;6.00;59.40
75517;DHT22;64097;52.548;13.406;2024-01-11T10:45:17;6.00;59.40
75517;DHT22;64097;52.548;13.406;2024-01-11T10:48:03;6.00;59.40
75517;DHT22;64097;52.548;13.406;2024-01-11T10:50:34;6.00;59.50
75517;DHT22;64097;52.548;13.406;2024-01-11T10:55:55;6.10;59.60
75517;DHT22;64097;52.548;13.406;2024-01-11T10:58:26;6.10;60.50
75517;DHT22;64097;52.548;13.406;2024-01-11T11:00:53;6.10;59.70
75517;DHT22;64097;52.548;13.406;2024-01-11T11:03:23;6.10;59.80
75517;DHT22;64097;52.548;13.406;2024-01-11T11:05:52;6.10;59.70
75517;DHT22;64097;52.548;13.406;2024-01-11T11:08:19;6.10;59.80
75517;DHT22;64097;52.548;13.406;2024-01-11T11:10:47;6.20;59.80
75517;DHT22;64097;52.548;13.406;2024-01-11T11:13:17;6.20;59.80
75517;DHT22;64097;52.548;13.406;2024-01-11T11:15:47;6.20;59.70
75517;DHT22;64097;52.548;13.406;2024-01-11T11:18:14;6.20;59.70
75517;DHT22;64097;52.548;13.406;2024-01-11T11:20:41;6.20;59.70
75517;DHT22;64097;52.548;13.406;2024-01-11T11:23:11;6.20;59.70
75517;DHT22;64097;52.548;13.406;2024-01-11T11:25:39;6.20;59.80
75517;DHT22;64097;52.548;13.406;2024-01-11T11:28:05;6.20;59.80
75517;DHT22;64097;52.548;13.406;2024-01-11T11:30:38;6.20;59.80
75517;DHT22;64097;52.548;13.406;2024-01-11T11:35:36;6.20;60.00
75517;DHT22;64097;52.548;13.406;2024-01-11T11:38:02;6.20;59.90
75517;DHT22;64097;52.548;13.406;2024-01-11T11:40:38;6.20;60.00
75517;DHT22;64097;52.548;13.406;2024-01-11T11:43:08;6.20;60.10
75517;DHT22;64097;52.548;13.406;2024-01-11T11:45:35;6.10;60.40
75517;DHT22;64097;52.548;13.406;2024-01-11T11:48:01;6.20;60.40
75517;DHT22;64097;52.548;13.406;2024-01-11T11:50:30;6.10;60.40
75517;DHT22;64097;52.548;13.406;2024-01-11T11:52:57;6.10;60.50
75517;DHT22;64097;52.548;13.406;2024-01-11T11:55:23;6.10;60.60
75517;DHT22;64097;52.548;13.406;2024-01-11T11:57:53;6.20;60.80
75517;DHT22;64097;52.548;13.406;2024-01-11T12:00:23;6.20;60.80
75517;DHT22;64097;52.548;13.406;2024-01-11T12:02:49;6.20;60.80
75517;DHT22;64097;52.548;13.406;2024-01-11T12:05:17;6.20;60.90
75517;DHT22;64097;52.548;13.406;2024-01-11T12:07:46;6.20;60.80
75517;DHT22;64097;52.548;13.406;2024-01-11T12:10:13;6.30;61.00
75517;DHT22;64097;52.548;13.406;2024-01-11T12:12:39;6.20;60.90
75517;DHT22;64097;52.548;13.406;2024-01-11T12:15:05;6.30;61.00
75517;DHT22;64097;52.548;13.406;2024-01-11T12:17:31;6.30;61.10
75517;DHT22;64097;52.548;13.406;2024-01-11T12:19:57;6.30;61.10
75517;DHT22;64097;52.548;13.406;2024-01-11T12:22:23;6.30;61.00
75517;DHT22;64097;52.548;13.406;2024-01-11T12:24:49;6.40;61.20
75517;DHT22;64097;52.548;13.406;2024-01-11T12:27:15;6.40;61.10
75517;DHT22;64097;52.548;13.406;2024-01-11T12:29:41;6.40;61.10
75517;DHT22;64097;52.548;13.406;2024-01-11T12:32:08;6.40;61.20
75517;DHT22;64097;52.548;13.406;2024-01-11T12:34:37;6.40;61.30
75517;DHT22;64097;52.548;13.406;2024-01-11T12:37:03;6.40;61.30
75517;DHT22;64097;52.548;13.406;2024-01-11T12:39:31;6.40;61.50
75517;DHT22;64097;52.548;13.406;2024-01-11T12:41:56;6.40;61.50
75517;DHT22;64097;52.548;13.406;2024-01-11T12:44:23;6.40;61.50
75517;DHT22;64097;52.548;13.406;2024-01-11T12:46:50;6.40;61.60
75517;DHT22;64097;52.548;13.406;2024-01-11T12:49:16;6.40;61.40
75517;DHT22;64097;52.548;13.406;2024-01-11T12:51:42;6.50;61.50
75517;DHT22;64097;52.548;13.406;2024-01-11T12:54:14;6.50;61.60
75517;DHT22;64097;52.548;13.406;2024-01-11T12:56:43;6.50;61.50
75517;DHT22;64097;52.548;13.406;2024-01-11T12:59:09;6.60;61.70
75517;DHT22;64097;52.548;13.406;2024-01-11T13:01:40;6.60;61.70
75517;DHT22;64097;52.548;13.406;2024-01-11T13:04:09;6.60;61.70
75517;DHT22;64097;52.548;13.406;2024-01-11T13:06:35;6.60;61.60
75517;DHT22;64097;52.548;13.406;2024-01-11T13:09:01;6.70;61.60
75517;DHT22;64097;52.548;13.406;2024-01-11T13:11:27;6.70;61.80
75517;DHT22;64097;52.548;13.406;2024-01-11T13:13:54;6.70;61.70
75517;DHT22;64097;52.548;13.406;2024-01-11T13:16:20;6.70;61.70
75517;DHT22;64097;52.548;13.406;2024-01-11T13:18:46;6.80;61.70
75517;DHT22;64097;52.548;13.406;2024-01-11T13:21:12;6.80;61.70
75517;DHT22;64097;52.548;13.406;2024-01-11T13:23:38;6.80;61.70
75517;DHT22;64097;52.548;13.406;2024-01-11T13:26:06;6.80;61.70
75517;DHT22;64097;52.548;13.406;2024-01-11T13:28:33;6.90;61.60
75517;DHT22;64097;52.548;13.406;2024-01-11T13:30:59;6.90;61.60
75517;DHT22;64097;52.548;13.406;2024-01-11T13:33:25;6.90;61.60
75517;DHT22;64097;52.548;13.406;2024-01-11T13:35:51;6.90;61.70
75517;DHT22;64097;52.548;13.406;2024-01-11T13:38:17;6.90;61.60
75517;DHT22;64097;52.548;13.406;2024-01-11T13:40:43;6.90;61.60
75517;DHT22;64097;52.548;13.406;2024-01-11T13:43:09;6.90;61.50
75517;DHT22;64097;52.548;13.406;2024-01-11T13:45:35;6.90;61.40
75517;DHT22;64097;52.548;13.406;2024-01-11T13:48:02;6.90;61.40
75517;DHT22;64097;52.548;13.406;2024-01-11T13:50:28;6.90;61.40
75517;DHT22;64097;52.548;13.406;2024-01-11T13:52:54;6.90;61.30
75517;DHT22;64097;52.548;13.406;2024-01-11T13:55:20;7.00;61.50
75517;DHT22;64097;52.548;13.406;2024-01-11T13:57:47;7.00;61.40
